Terminal Aerodrome Forecast
Issued by NWS Sioux Falls, SD

Home | Current Version | Previous Version | Graphics & Text | Print | Product List | Glossary Off
Versions: 1 2 3 4 5 6 7 8 9 10 11 12 13 14 15 16 17 18 19

399
FTUS43 KFSD 142320
TAFFSD
TAF
KFSD 142320Z 1500/1524 25006KT P6SM FEW200
     FM150600 VRB03KT P6SM SCT200
     FM150900 VRB03KT 4SM BR SCT150
     FM151500 36007KT P6SM BKN080
     FM151800 36012KT P6SM OVC025
     FM152000 34016G24KT P6SM OVC025
     FM152200 34016G24KT 3SM -SN OVC025=

USA.gov is the U.S. government's official web portal to all federal, state and local government web resources and services.